Time;durP1;ratioP1;P1;durP2;ratioP2;P2;SDS_P1;SDS_P2;PMS_P1;PMS_P2;Temp;Humidity;BMP_temperature;BMP_pressure;BME280_temperature;BME280_humidity;BME280_pressure;Samples;Min_cycle;Max_cycle;Signal;HPM_P1;HPM_P2
2022/10/30 00:00:01;;;;;;;15.45;10.77;;;;;;;11.89;100.00;101204.00;4961309;28;20515;-78
2022/10/30 00:02:27;;;;;;;17.02;10.73;;;;;;;11.87;100.00;101197.88;4942830;28;20043;-78
2022/10/30 00:04:54;;;;;;;15.52;9.57;;;;;;;11.86;100.00;101202.28;4959102;28;20078;-78
2022/10/30 00:07:21;;;;;;;14.82;9.57;;;;;;;11.88;100.00;101199.59;4957820;28;20050;-78
2022/10/30 00:09:47;;;;;;;15.90;9.68;;;;;;;11.95;100.00;101199.47;4976663;28;20137;-78
2022/10/30 00:12:14;;;;;;;18.95;10.45;;;;;;;11.94;100.00;101199.47;4962728;28;20050;-78
2022/10/30 00:14:41;;;;;;;16.48;10.02;;;;;;;11.96;100.00;101193.28;4959451;28;20051;-77
2022/10/30 00:17:07;;;;;;;14.48;10.23;;;;;;;11.97;100.00;101194.16;4975169;28;20283;-78
2022/10/30 00:19:34;;;;;;;15.02;10.00;;;;;;;11.97;100.00;101200.31;4970907;28;20038;-78
2022/10/30 00:22:01;;;;;;;22.17;10.80;;;;;;;11.87;100.00;101204.03;4961141;28;20101;-78
2022/10/30 00:24:27;;;;;;;13.48;8.52;;;;;;;11.84;100.00;101199.63;4962477;28;20031;-78
2022/10/30 00:26:54;;;;;;;16.67;11.05;;;;;;;11.78;100.00;101201.50;4946450;28;20039;-78
2022/10/30 00:29:23;;;;;;;17.90;10.95;;;;;;;11.80;100.00;101191.78;4979369;28;20039;-78
2022/10/30 00:31:51;;;;;;;19.05;9.15;;;;;;;11.80;100.00;101190.03;4962853;28;20492;-79
2022/10/30 00:34:18;;;;;;;16.38;9.55;;;;;;;11.72;100.00;101176.00;4960297;28;20043;-78
2022/10/30 00:36:45;;;;;;;15.23;9.00;;;;;;;11.68;100.00;101179.59;4961689;28;20035;-78
2022/10/30 00:39:12;;;;;;;15.63;10.68;;;;;;;11.74;100.00;101182.13;4969607;28;20624;-78
2022/10/30 00:41:41;;;;;;;16.08;9.55;;;;;;;11.70;100.00;101185.75;4964777;28;20049;-78
2022/10/30 00:44:31;;;;;;;18.08;10.80;;;;;;;11.69;100.00;101178.72;4962309;28;20043;-78
2022/10/30 00:46:59;;;;;;;19.20;10.90;;;;;;;11.69;100.00;101173.41;4978770;28;20035;-78
2022/10/30 00:49:25;;;;;;;19.75;10.85;;;;;;;11.69;100.00;101167.25;4981310;28;20046;-78
2022/10/30 00:51:53;;;;;;;17.10;10.00;;;;;;;11.64;100.00;101169.09;4968156;28;20050;-78
2022/10/30 00:54:21;;;;;;;19.90;11.70;;;;;;;11.65;100.00;101169.06;4978426;28;20098;-78
2022/10/30 00:56:48;;;;;;;18.02;11.35;;;;;;;11.58;100.00;101167.41;4950502;28;20050;-78
2022/10/30 00:59:17;;;;;;;19.00;11.90;;;;;;;11.62;100.00;101157.66;4980085;28;20733;-78
2022/10/30 01:01:45;;;;;;;16.65;11.00;;;;;;;11.54;100.00;101158.66;4946378;28;20053;-77
2022/10/30 01:04:12;;;;;;;19.23;11.55;;;;;;;11.57;100.00;101163.88;4952732;28;20061;-78
2022/10/30 01:06:41;;;;;;;18.52;11.70;;;;;;;11.49;100.00;101152.56;4984623;28;20034;-78
2022/10/30 01:09:07;;;;;;;15.32;11.38;;;;;;;11.45;100.00;101158.81;4980542;28;20034;-78
2022/10/30 01:11:34;;;;;;;14.02;9.55;;;;;;;11.44;100.00;101150.91;4919234;28;20145;-78
2022/10/30 01:14:04;;;;;;;14.63;8.80;;;;;;;11.40;100.00;101149.19;4980731;28;20031;-78
2022/10/30 01:16:55;;;;;;;17.17;10.27;;;;;;;11.37;100.00;101147.47;4961177;28;20049;-78
2022/10/30 01:19:59;;;;;;;15.57;10.80;;;;;;;11.33;100.00;101150.19;4973041;28;20039;-78
2022/10/30 01:22:37;;;;;;;10.02;8.30;;;;;;;11.28;100.00;101144.97;4970132;28;20066;-78
2022/10/30 01:25:31;;;;;;;14.32;8.93;;;;;;;11.26;100.00;101150.28;4947564;28;20484;-78
2022/10/30 01:28:27;;;;;;;13.38;9.05;;;;;;;11.26;100.00;101141.47;4971985;28;20571;-79
2022/10/30 01:31:16;;;;;;;13.63;9.43;;;;;;;11.25;100.00;101137.06;4951974;28;20059;-78
2022/10/30 01:33:55;;;;;;;12.05;8.65;;;;;;;11.28;100.00;101124.69;4946111;28;20499;-78
2022/10/30 01:36:31;;;;;;;12.10;8.68;;;;;;;11.30;100.00;101129.09;4968668;28;20066;-78
2022/10/30 01:39:10;;;;;;;13.20;9.55;;;;;;;11.30;100.00;101132.59;4977149;28;20504;-78
2022/10/30 01:41:37;;;;;;;12.35;8.98;;;;;;;11.27;100.00;101128.25;4963248;28;20042;-78
2022/10/30 01:44:08;;;;;;;16.58;9.93;;;;;;;11.32;100.00;101119.34;4941179;28;20069;-78
2022/10/30 01:46:48;;;;;;;13.20;8.75;;;;;;;11.28;100.00;101115.88;4973095;28;20039;-79
2022/10/30 01:49:42;;;;;;;15.57;9.68;;;;;;;11.26;100.00;101107.94;4959519;28;20050;-78
2022/10/30 01:52:15;;;;;;;;;;;;;;;11.22;100.00;101113.34;4958898;28;20648;-79
2022/10/30 01:55:10;;;;;;;15.32;9.45;;;;;;;11.19;100.00;101113.41;4974741;28;19965;-78
2022/10/30 01:57:48;;;;;;;14.10;10.57;;;;;;;11.18;100.00;101109.88;4969511;28;20038;-77
2022/10/30 02:00:19;;;;;;;14.52;9.73;;;;;;;11.18;100.00;101101.94;4951159;28;20039;-77
2022/10/30 02:02:48;;;;;;;16.45;9.32;;;;;;;11.18;100.00;101101.94;4967766;28;20050;-77
2022/10/30 02:05:25;;;;;;;16.20;10.18;;;;;;;11.19;100.00;101103.69;4953166;28;20039;-77
2022/10/30 02:07:51;;;;;;;19.55;11.43;;;;;;;11.18;100.00;101101.94;4945978;28;20982;-79
2022/10/30 02:10:20;;;;;;;19.33;10.65;;;;;;;11.19;100.00;101098.41;4935691;28;20049;-77
2022/10/30 02:12:47;;;;;;;20.02;11.93;;;;;;;11.25;100.00;101103.56;4934434;28;20061;-79
2022/10/30 02:15:14;;;;;;;17.23;11.30;;;;;;;11.21;100.00;101101.00;4959419;28;20039;-77
2022/10/30 02:17:41;;;;;;;16.85;11.18;;;;;;;11.23;100.00;101100.06;4933680;28;20050;-80
2022/10/30 02:20:18;;;;;;;13.43;9.98;;;;;;;11.19;100.00;101095.75;4953695;28;20043;-77
2022/10/30 02:22:45;;;;;;;18.17;9.75;;;;;;;11.18;100.00;101086.06;4956481;28;20050;-78
2022/10/30 02:25:13;;;;;;;18.30;11.30;;;;;;;11.18;100.00;101090.47;4953779;28;20042;-79
2022/10/30 02:27:39;;;;;;;18.98;11.07;;;;;;;11.11;100.00;101087.06;4955739;28;20031;-78
2022/10/30 02:30:07;;;;;;;14.73;10.35;;;;;;;11.09;100.00;101086.19;4959670;28;20045;-77
2022/10/30 02:32:33;;;;;;;13.57;9.35;;;;;;;11.08;100.00;101079.16;4973540;28;20039;-79
2022/10/30 02:35:00;;;;;;;13.45;9.77;;;;;;;11.08;100.00;101079.16;4968026;28;20050;-79
2022/10/30 02:37:27;;;;;;;14.07;9.27;;;;;;;11.12;100.00;101075.59;4959594;28;20031;-77
2022/10/30 02:39:53;;;;;;;11.75;9.18;;;;;;;11.08;100.00;101078.28;4942364;28;20520;-77
2022/10/30 02:42:22;;;;;;;13.75;9.27;;;;;;;11.10;100.00;101077.38;4949849;28;20397;-78
2022/10/30 02:44:48;;;;;;;17.40;9.35;;;;;;;11.10;100.00;101074.75;4955452;28;20069;-79
2022/10/30 02:47:15;;;;;;;14.75;10.45;;;;;;;11.04;100.00;101074.84;4940828;28;20444;-79
2022/10/30 02:49:41;;;;;;;14.70;10.55;;;;;;;11.04;100.00;101066.91;4960221;28;20110;-78
2022/10/30 02:52:08;;;;;;;16.13;10.13;;;;;;;11.00;100.00;101066.06;4944281;28;20042;-79
2022/10/30 02:54:35;;;;;;;17.80;10.00;;;;;;;11.02;100.00;101065.19;4979792;28;20097;-79
2022/10/30 02:57:02;;;;;;;15.68;9.38;;;;;;;10.94;100.00;101070.59;4964354;28;20050;-78
2022/10/30 02:59:29;;;;;;;13.13;9.02;;;;;;;10.87;100.00;101059.22;4959141;28;20132;-78
2022/10/30 03:01:55;;;;;;;15.52;9.68;;;;;;;10.84;100.00;101058.38;4961786;28;20054;-77
2022/10/30 03:04:22;;;;;;;15.23;9.15;;;;;;;10.84;100.00;101059.25;4972694;28;20047;-76
2022/10/30 03:06:49;;;;;;;17.10;10.25;;;;;;;10.82;100.00;101053.13;4952015;28;20046;-79
2022/10/30 03:09:15;;;;;;;18.65;11.07;;;;;;;10.81;100.00;101059.31;4973090;28;20126;-78
2022/10/30 03:11:43;;;;;;;18.05;11.75;;;;;;;10.76;100.00;101066.44;4961114;28;20077;-76
2022/10/30 03:14:10;;;;;;;19.80;12.50;;;;;;;10.74;100.00;101067.34;4941469;28;20105;-77
2022/10/30 03:16:37;;;;;;;18.08;11.38;;;;;;;10.74;100.00;101073.50;4954701;28;20042;-76
2022/10/30 03:19:04;;;;;;;19.75;12.73;;;;;;;10.73;100.00;101069.13;4972170;28;20043;-78
2022/10/30 03:21:30;;;;;;;21.63;13.10;;;;;;;10.75;100.00;101066.47;4978156;28;20078;-78
2022/10/30 03:23:57;;;;;;;18.52;11.18;;;;;;;10.66;100.00;101076.25;4978067;28;20042;-78
2022/10/30 03:26:24;;;;;;;20.02;13.02;;;;;;;10.66;100.00;101081.53;4971256;28;20702;-78
2022/10/30 03:28:51;;;;;;;22.70;12.50;;;;;;;10.57;100.00;101081.69;4939773;28;20081;-77
2022/10/30 03:31:18;;;;;;;20.33;13.48;;;;;;;10.58;100.00;101082.56;4956220;28;20039;-77
2022/10/30 03:33:45;;;;;;;22.20;14.70;;;;;;;10.56;100.00;101082.56;4943082;28;20042;-76
2022/10/30 03:36:13;;;;;;;22.92;16.20;;;;;;;10.51;100.00;101086.16;4958738;28;20049;-78
2022/10/30 03:38:40;;;;;;;19.77;13.95;;;;;;;10.51;100.00;101092.34;4953684;28;20046;-79
2022/10/30 03:41:07;;;;;;;22.00;15.20;;;;;;;10.57;100.00;101096.66;4983578;28;20051;-77
2022/10/30 03:43:33;;;;;;;21.70;14.07;;;;;;;10.47;100.00;101113.53;4977126;28;20492;-79
2022/10/30 03:46:00;;;;;;;23.60;14.63;;;;;;;10.47;100.00;101101.19;4972994;28;20049;-77
2022/10/30 03:48:28;;;;;;;26.45;16.17;;;;;;;10.41;100.00;101107.41;4938974;28;20097;-77
2022/10/30 03:50:56;;;;;;;26.48;15.13;;;;;;;10.38;100.00;101109.25;4966613;28;20042;-76
2022/10/30 03:53:25;;;;;;;24.95;14.77;;;;;;;10.35;100.00;101107.53;4956112;28;20035;-76
2022/10/30 03:55:52;;;;;;;21.80;14.18;;;;;;;10.38;100.00;101107.47;4930750;29;20472;-78
2022/10/30 03:58:18;;;;;;;23.10;14.45;;;;;;;10.40;100.00;101105.69;4946829;28;20062;-77
2022/10/30 04:00:45;;;;;;;18.98;12.75;;;;;;;10.36;100.00;101119.84;4972396;28;20066;-77
2022/10/30 04:03:12;;;;;;;25.63;14.00;;;;;;;10.32;100.00;101117.22;4958559;28;20042;-77
2022/10/30 04:05:39;;;;;;;17.10;12.40;;;;;;;10.24;100.00;101127.00;4940671;28;20520;-79
2022/10/30 04:08:10;;;;;;;22.15;12.40;;;;;;;10.19;100.00;101124.41;4966987;28;20568;-78
2022/10/30 04:10:44;;;;;;;17.90;11.70;;;;;;;10.16;100.00;101127.94;4975075;28;20042;-77
2022/10/30 04:13:12;;;;;;;16.77;11.88;;;;;;;10.15;100.00;101122.66;4937375;28;20042;-79
2022/10/30 04:15:39;;;;;;;17.55;11.05;;;;;;;10.09;100.00;101121.00;4917825;28;20065;-80
2022/10/30 04:18:06;;;;;;;19.63;11.25;;;;;;;10.13;100.00;101120.06;4941857;28;20039;-77
2022/10/30 04:20:33;;;;;;;19.10;12.27;;;;;;;10.12;100.00;101122.72;4952407;28;20039;-77
2022/10/30 04:23:02;;;;;;;19.38;11.90;;;;;;;10.09;100.00;101120.13;4956386;28;20058;-77
2022/10/30 04:25:29;;;;;;;21.67;13.20;;;;;;;10.08;100.00;101115.72;4941869;28;20042;-79
2022/10/30 04:27:56;;;;;;;19.05;12.32;;;;;;;10.05;100.00;101114.00;4956421;28;20043;-77
2022/10/30 04:30:26;;;;;;;21.33;12.43;;;;;;;10.08;100.00;101107.78;4958153;28;20037;-78
2022/10/30 04:32:55;;;;;;;23.45;13.00;;;;;;;10.10;100.00;101103.38;4933071;28;20488;-78
2022/10/30 04:35:28;;;;;;;18.88;12.20;;;;;;;10.09;100.00;101113.06;4941087;28;20086;-78
2022/10/30 04:38:00;;;;;;;19.30;13.00;;;;;;;10.06;100.00;101110.44;4960031;28;20106;-77
2022/10/30 04:40:30;;;;;;;16.73;11.55;;;;;;;10.07;100.00;101109.56;4980191;28;20043;-78
2022/10/30 04:42:56;;;;;;;18.42;11.98;;;;;;;10.09;100.00;101109.56;4940682;28;20133;-77
2022/10/30 04:45:24;;;;;;;17.60;12.25;;;;;;;10.09;100.00;101109.56;4974873;28;20412;-79
2022/10/30 04:47:51;;;;;;;17.48;12.70;;;;;;;10.09;100.00;101099.88;4963680;28;20447;-78
2022/10/30 04:50:18;;;;;;;17.70;12.15;;;;;;;10.12;100.00;101098.97;4965318;28;20043;-79
2022/10/30 04:52:45;;;;;;;20.05;12.57;;;;;;;10.14;100.00;101094.53;4955810;28;20043;-77
2022/10/30 04:55:12;;;;;;;21.10;13.40;;;;;;;10.19;100.00;101091.84;4944293;28;20042;-79
2022/10/30 04:57:38;;;;;;;20.75;13.77;;;;;;;10.21;100.00;101100.63;4973004;28;20031;-77
2022/10/30 05:00:06;;;;;;;21.85;13.30;;;;;;;10.23;100.00;101096.22;4978796;28;20637;-78
2022/10/30 05:02:35;;;;;;;20.20;14.20;;;;;;;10.19;100.00;101090.06;4939225;28;20046;-78
2022/10/30 05:05:03;;;;;;;23.33;14.05;;;;;;;10.22;100.00;101090.06;4960990;28;20046;-78
2022/10/30 05:07:30;;;;;;;21.73;13.45;;;;;;;10.25;100.00;101090.00;4956536;28;20543;-79
2022/10/30 05:09:56;;;;;;;28.15;13.82;;;;;;;10.28;100.00;101090.00;4966410;28;20035;-80
2022/10/30 05:12:23;;;;;;;21.08;12.60;;;;;;;10.26;100.00;101081.22;4953952;28;20039;-79
2022/10/30 05:14:49;;;;;;;21.60;13.57;;;;;;;10.18;100.00;101093.63;4955529;28;21847;-78
2022/10/30 05:17:16;;;;;;;20.33;13.88;;;;;;;10.13;100.00;101095.44;4937451;28;20043;-78
2022/10/30 05:19:43;;;;;;;22.65;13.52;;;;;;;10.07;100.00;101088.44;4954460;28;20035;-79
2022/10/30 05:22:09;;;;;;;25.45;14.60;;;;;;;10.02;100.00;101079.72;4950567;28;20043;-78
2022/10/30 05:24:36;;;;;;;24.05;15.63;;;;;;;10.08;100.00;101076.97;4950472;28;20273;-78
2022/10/30 05:27:03;;;;;;;21.48;14.30;;;;;;;10.05;100.00;101073.50;4972583;28;20039;-77
2022/10/30 05:29:29;;;;;;;23.10;14.85;;;;;;;9.98;100.00;101078.00;4970410;28;20053;-79
2022/10/30 05:31:56;;;;;;;22.67;14.20;;;;;;;9.95;100.00;101078.03;4919128;28;20043;-78
2022/10/30 05:34:22;;;;;;;23.20;14.40;;;;;;;9.96;100.00;101071.84;4954649;28;20046;-78
2022/10/30 05:36:49;;;;;;;22.50;15.05;;;;;;;9.88;100.00;101069.31;4925189;28;20443;-78
2022/10/30 05:39:16;;;;;;;22.77;13.38;;;;;;;9.86;100.00;101070.22;4946316;28;20473;-78
2022/10/30 05:41:42;;;;;;;21.13;14.18;;;;;;;9.85;100.00;101069.34;4938977;28;20043;-78
2022/10/30 05:44:09;;;;;;;22.02;13.70;;;;;;;9.86;100.00;101067.59;4936978;28;20042;-78
2022/10/30 05:46:36;;;;;;;22.95;13.85;;;;;;;9.90;100.00;101061.38;4961617;28;20053;-78
2022/10/30 05:49:02;;;;;;;21.98;14.68;;;;;;;9.88;100.00;101061.38;4950893;28;20050;-78
2022/10/30 05:51:29;;;;;;;22.40;15.25;;;;;;;9.91;100.00;101064.88;4948896;28;20047;-78
2022/10/30 05:53:56;;;;;;;21.95;13.93;;;;;;;9.94;100.00;101065.72;4960948;28;20046;-78
2022/10/30 05:56:22;;;;;;;19.58;13.30;;;;;;;9.95;100.00;101070.13;4971704;28;20496;-77
2022/10/30 05:58:49;;;;;;;22.77;13.43;;;;;;;9.99;100.00;101065.66;4952335;28;20038;-78
2022/10/30 06:01:16;;;;;;;17.80;12.85;;;;;;;10.07;100.00;101063.81;4969387;28;20034;-78
2022/10/30 06:03:43;;;;;;;23.70;14.45;;;;;;;10.01;100.00;101063.91;4936224;28;20046;-78
2022/10/30 06:06:10;;;;;;;22.35;13.20;;;;;;;9.94;100.00;101063.09;4956797;28;20070;-79
2022/10/30 06:08:36;;;;;;;25.85;14.77;;;;;;;9.93;100.00;101077.19;4976859;28;20092;-77
2022/10/30 06:11:03;;;;;;;20.27;13.88;;;;;;;9.97;100.00;101073.59;4963284;28;20039;-77
2022/10/30 06:13:29;;;;;;;24.02;14.48;;;;;;;10.03;100.00;101072.66;4958001;28;20114;-78
2022/10/30 06:15:56;;;;;;;21.63;13.85;;;;;;;10.04;100.00;101075.28;4970078;28;20066;-78
2022/10/30 06:18:23;;;;;;;21.88;13.23;;;;;;;10.01;100.00;101075.34;4942334;28;20039;-78
2022/10/30 06:20:50;;;;;;;21.63;14.40;;;;;;;9.98;100.00;101080.63;4970933;28;20047;-78
2022/10/30 06:23:16;;;;;;;18.50;13.07;;;;;;;9.97;100.00;101076.25;4950474;28;20106;-77
2022/10/30 06:25:43;;;;;;;19.73;12.70;;;;;;;9.99;100.00;101079.72;4986493;28;20039;-77
2022/10/30 06:28:13;;;;;;;16.70;11.10;;;;;;;10.01;100.00;101074.47;4961107;28;20043;-78
2022/10/30 06:30:39;;;;;;;19.48;13.00;;;;;;;10.04;100.00;101064.72;4920226;28;20788;-78
2022/10/30 06:33:06;;;;;;;18.50;12.38;;;;;;;10.08;100.00;101070.84;4936946;28;20039;-79
2022/10/30 06:35:33;;;;;;;22.80;13.48;;;;;;;10.11;100.00;101074.31;4951365;28;20082;-78
2022/10/30 06:37:59;;;;;;;18.80;12.05;;;;;;;10.10;100.00;101069.94;4938568;28;20054;-78
2022/10/30 06:40:28;;;;;;;19.10;13.30;;;;;;;10.13;100.00;101069.03;4972825;28;20042;-79
2022/10/30 06:42:56;;;;;;;18.25;12.43;;;;;;;10.18;100.00;101066.34;4986486;23;20057;-82
2022/10/30 06:45:23;;;;;;;21.60;12.63;;;;;;;10.22;100.00;101062.75;4979517;28;20038;-82
2022/10/30 06:47:51;;;;;;;19.55;13.05;;;;;;;10.29;100.00;101062.69;4994188;28;20041;-82
2022/10/30 06:50:19;;;;;;;20.17;13.32;;;;;;;10.34;100.00;101059.97;4997723;28;20490;-82
2022/10/30 06:52:47;;;;;;;21.17;11.65;;;;;;;10.34;100.00;101058.25;4979888;28;20065;-82
2022/10/30 06:55:14;;;;;;;17.27;11.65;;;;;;;10.37;100.00;101044.97;5000259;28;20120;-80
2022/10/30 06:57:40;;;;;;;21.05;13.18;;;;;;;10.55;100.00;101041.19;4997458;28;20069;-82
2022/10/30 07:00:08;;;;;;;19.08;13.45;;;;;;;10.70;100.00;101046.28;4992991;28;20391;-79
2022/10/30 07:02:35;;;;;;;22.35;12.90;;;;;;;10.67;100.00;101048.94;4997062;28;20034;-84
2022/10/30 07:05:02;;;;;;;20.70;12.30;;;;;;;10.69;100.00;101048.94;5028867;28;20041;-81
2022/10/30 07:07:29;;;;;;;17.55;12.60;;;;;;;10.65;100.00;101050.75;5008884;28;20040;-82
2022/10/30 07:09:55;;;;;;;20.83;12.00;;;;;;;10.70;100.00;101050.69;4988665;28;20069;-82
2022/10/30 07:12:22;;;;;;;17.95;11.50;;;;;;;10.69;100.00;101039.25;5002387;28;20052;-82
2022/10/30 07:14:49;;;;;;;17.90;12.25;;;;;;;10.76;100.00;101049.69;4994977;28;20072;-83
2022/10/30 07:17:15;;;;;;;16.45;11.80;;;;;;;10.78;100.00;101058.50;4998710;28;20045;-82
2022/10/30 07:19:42;;;;;;;16.92;12.45;;;;;;;10.82;100.00;101061.06;4999844;28;20045;-83
2022/10/30 07:22:09;;;;;;;16.83;11.20;;;;;;;10.84;100.00;101053.97;4982760;28;20041;-84
2022/10/30 07:24:36;;;;;;;19.38;12.45;;;;;;;10.90;100.00;101055.66;4997092;28;20073;-84
2022/10/30 07:27:02;;;;;;;22.88;13.73;;;;;;;10.96;100.00;101052.94;4997812;28;20417;-85
2022/10/30 07:29:29;;;;;;;19.50;13.13;;;;;;;11.01;100.00;101045.78;4976737;28;20617;-81
2022/10/30 07:31:56;;;;;;;21.98;14.82;;;;;;;11.08;100.00;101058.00;4998635;28;20079;-80
2022/10/30 07:34:29;;;;;;;17.13;13.68;;;;;;;11.11;100.00;101063.28;5011011;28;20084;-81
2022/10/30 07:36:55;;;;;;;24.70;14.77;;;;;;;11.20;100.00;101068.41;5011808;28;20132;-81
2022/10/30 07:39:22;;;;;;;18.92;13.55;;;;;;;11.24;100.00;101069.22;4983258;28;20044;-83
2022/10/30 07:41:49;;;;;;;17.40;13.02;;;;;;;11.30;100.00;101074.41;4998487;28;20081;-82
2022/10/30 07:44:16;;;;;;;16.73;12.60;;;;;;;11.35;100.00;101075.22;4999971;28;20111;-82
2022/10/30 07:46:43;;;;;;;17.45;13.65;;;;;;;11.42;100.00;101084.75;5000470;28;20041;-82
2022/10/30 07:49:10;;;;;;;17.88;13.35;;;;;;;11.50;100.00;101082.88;4998928;28;20038;-82
2022/10/30 07:51:37;;;;;;;18.05;12.57;;;;;;;11.56;100.00;101076.59;4986304;28;20037;-82
2022/10/30 07:54:03;;;;;;;21.05;13.32;;;;;;;11.65;100.00;101083.50;4985503;28;20502;-81
2022/10/30 07:56:30;;;;;;;20.50;13.20;;;;;;;11.71;100.00;101084.25;5029835;28;20084;-81
2022/10/30 07:58:57;;;;;;;24.42;15.40;;;;;;;11.81;100.00;101088.50;4974726;28;20491;-82
2022/10/30 08:01:24;;;;;;;20.17;13.85;;;;;;;11.88;100.00;101078.69;5010973;28;20446;-82
2022/10/30 08:03:51;;;;;;;21.95;13.88;;;;;;;11.88;100.00;101078.69;5001952;28;20067;-83
2022/10/30 08:06:18;;;;;;;14.02;11.10;;;;;;;11.96;100.00;101081.19;5010553;28;20042;-82
2022/10/30 08:08:51;;;;;;;16.98;12.13;;;;;;;12.06;100.00;101082.75;5018450;28;20037;-83
2022/10/30 08:11:18;;;;;;;17.45;11.90;;;;;;;12.16;100.00;101078.13;5018614;28;20119;-83
2022/10/30 08:13:45;;;;;;;15.02;10.98;;;;;;;12.24;100.00;101079.72;5001537;28;20056;-83
2022/10/30 08:16:12;;;;;;;17.17;11.82;;;;;;;12.32;100.00;101076.91;4995561;28;20065;-82
2022/10/30 08:18:41;;;;;;;16.20;13.18;;;;;;;12.41;100.00;101076.72;4999595;28;20551;-84
2022/10/30 08:21:08;;;;;;;16.70;12.45;;;;;;;12.45;100.00;101067.81;4997010;28;20044;-81
2022/10/30 08:23:35;;;;;;;16.48;12.63;;;;;;;12.54;100.00;101080.00;5000225;28;20113;-80
2022/10/30 08:26:05;;;;;;;13.93;10.75;;;;;;;12.60;100.00;101072.75;5019692;28;20499;-80
2022/10/30 08:28:32;;;;;;;26.98;19.85;;;;;;;12.65;100.00;101077.97;4985960;28;20523;-81
2022/10/30 08:30:59;;;;;;;24.00;16.23;;;;;;;12.73;100.00;101085.75;5019707;28;20037;-81
2022/10/30 08:33:26;;;;;;;22.33;14.77;;;;;;;12.77;100.00;101082.97;5003769;28;20486;-82
2022/10/30 08:35:55;;;;;;;22.98;13.82;;;;;;;12.80;100.00;101076.75;5017944;28;20065;-82
2022/10/30 08:38:22;;;;;;;22.83;16.40;;;;;;;12.90;100.00;101083.59;4999272;28;20045;-83
2022/10/30 08:40:49;;;;;;;19.02;13.68;;;;;;;12.94;100.00;101075.50;4995751;28;20490;-83
2022/10/30 08:43:16;;;;;;;84.40;47.90;;;;;;;13.08;100.00;101084.94;5010389;28;20044;-84
2022/10/30 08:45:43;;;;;;;54.17;35.35;;;;;;;13.19;100.00;101086.44;4975374;28;20068;-83
2022/10/30 08:48:13;;;;;;;23.77;17.77;;;;;;;13.37;100.00;101085.13;4994170;28;20482;-83
2022/10/30 08:50:43;;;;;;;19.67;14.38;;;;;;;13.40;100.00;101092.13;4993740;28;20490;-83
2022/10/30 08:53:11;;;;;;;23.30;15.32;;;;;;;13.61;100.00;101094.22;4970325;28;20038;-84
2022/10/30 08:55:39;;;;;;;24.58;16.90;;;;;;;13.67;100.00;101093.19;5003600;28;20080;-85
2022/10/30 08:58:07;;;;;;;22.08;16.63;;;;;;;13.74;100.00;101092.13;4991657;28;20048;-85
2022/10/30 09:00:34;;;;;;;21.65;15.38;;;;;;;13.85;100.00;101087.41;4992252;28;20297;-85
2022/10/30 09:03:01;;;;;;;21.88;14.77;;;;;;;13.98;100.00;101090.59;4996777;28;20052;-85
2022/10/30 09:05:29;;;;;;;20.23;15.27;;;;;;;13.89;100.00;101094.38;4995819;28;20133;-86
2022/10/30 09:07:57;;;;;;;20.30;13.85;;;;;;;13.98;100.00;101093.25;4990970;28;20406;-85
2022/10/30 09:10:25;;;;;;;18.45;13.88;;;;;;;13.93;100.00;101088.06;4994010;28;20045;-85
2022/10/30 09:12:54;;;;;;;18.17;13.05;;;;;;;13.95;100.00;101093.31;4978640;28;20064;-85
2022/10/30 09:15:22;;;;;;;18.30;12.95;;;;;;;14.02;100.00;101092.25;4976675;28;20124;-85
2022/10/30 09:17:57;;;;;;;16.90;13.07;;;;;;;14.19;100.00;101091.78;4978955;28;20045;-86
2022/10/30 09:20:26;;;;;;;16.20;13.35;;;;;;;14.28;100.00;101091.50;4993139;28;20638;-86
2022/10/30 09:22:53;;;;;;;18.85;14.13;;;;;;;14.41;100.00;101090.25;4982380;28;20053;-86
2022/10/30 09:25:21;;;;;;;19.02;13.68;;;;;;;14.54;100.00;101090.78;4982290;28;20041;-87
2022/10/30 09:27:47;;;;;;;17.58;12.05;;;;;;;14.55;100.00;101079.25;4996965;28;20049;-86
2022/10/30 09:30:15;;;;;;;19.45;12.93;;;;;;;14.75;100.00;101091.94;4997989;28;20048;-87
2022/10/30 09:32:42;;;;;;;20.52;13.82;;;;;;;14.99;100.00;101085.84;4995929;28;20052;-86
2022/10/30 09:35:09;;;;;;;20.05;12.63;;;;;;;15.13;100.00;101085.38;4980176;28;20065;-87
2022/10/30 09:37:37;;;;;;;21.90;12.43;;;;;;;15.31;100.00;101092.78;4977347;28;20045;-86
2022/10/30 09:40:05;;;;;;;19.05;12.13;;;;;;;15.47;100.00;101090.47;4997345;28;21856;-86
2022/10/30 09:42:46;;;;;;;19.10;11.63;;;;;;;15.75;100.00;101083.31;5000349;28;20029;-87
2022/10/30 09:45:45;;;;;;;19.10;11.70;;;;;;;15.99;100.00;101086.03;4993139;28;20057;-86
2022/10/30 09:48:40;;;;;;;16.25;10.55;;;;;;;16.34;100.00;101082.06;4995579;28;20120;-85
2022/10/30 09:51:37;;;;;;;16.38;10.38;;;;;;;16.60;100.00;101084.59;4996066;28;20115;-85
2022/10/30 09:54:04;;;;;;;14.52;9.77;;;;;;;16.82;100.00;101074.00;5007484;28;20409;-86
2022/10/30 09:56:44;;;;;;;16.02;8.70;;;;;;;17.10;100.00;101080.88;5009989;28;21563;-85
2022/10/30 09:59:31;;;;;;;13.43;9.23;;;;;;;17.30;100.00;101075.59;4983414;28;20443;-86
2022/10/30 10:02:31;;;;;;;15.13;10.35;;;;;;;17.54;100.00;101070.16;4991304;28;20780;-85
2022/10/30 10:05:05;;;;;;;13.77;9.70;;;;;;;17.66;100.00;101061.63;4989205;28;20990;-85
2022/10/30 10:07:39;;;;;;;10.73;8.60;;;;;;;17.83;100.00;101055.56;4980951;28;20049;-85
2022/10/30 10:10:17;;;;;;;13.93;9.80;;;;;;;17.95;100.00;101052.34;4981138;28;20041;-84
2022/10/30 10:12:46;;;;;;;14.88;10.00;;;;;;;17.95;100.00;101061.22;4980577;28;20046;-84
2022/10/30 10:15:21;;;;;;;14.50;9.65;;;;;;;17.95;100.00;101055.88;4996698;28;20049;-85
2022/10/30 10:17:48;;;;;;;15.38;10.23;;;;;;;18.03;100.00;101060.00;4996774;28;20501;-85
2022/10/30 10:20:42;;;;;;;11.27;9.02;;;;;;;18.12;100.00;101055.13;4981357;28;20069;-85
2022/10/30 10:23:27;;;;;;;13.32;9.00;;;;;;;18.28;100.00;101055.28;5004620;28;20057;-85
2022/10/30 10:25:57;;;;;;;15.25;9.02;;;;;;;18.36;100.00;101052.25;4991423;28;20050;-86
2022/10/30 10:28:47;;;;;;;15.23;9.25;;;;;;;18.43;100.00;101051.91;4981216;28;20045;-85
2022/10/30 10:31:43;;;;;;;10.77;7.82;;;;;;;18.37;100.00;101037.94;4981313;28;20065;-85
2022/10/30 10:34:16;;;;;;;13.90;9.45;;;;;;;18.63;100.00;101042.94;5012751;28;20073;-85
2022/10/30 10:37:02;;;;;;;13.27;9.43;;;;;;;18.73;100.00;101043.38;5006398;28;20060;-85
2022/10/30 10:39:40;;;;;;;14.48;8.90;;;;;;;18.73;100.00;101040.69;4998834;28;20041;-85
2022/10/30 10:42:34;;;;;;;12.88;8.40;;;;;;;18.81;100.00;101043.88;4988488;28;20042;-85
2022/10/30 10:45:31;;;;;;;12.15;8.07;;;;;;;18.69;100.00;101036.47;4997665;28;20042;-85
2022/10/30 10:48:23;;;;;;;12.88;9.13;;;;;;;18.87;99.29;101042.72;5003544;28;20063;-84
2022/10/30 10:51:01;;;;;;;15.40;9.35;;;;;;;18.89;98.91;101030.13;5000466;28;20045;-84
2022/10/30 10:54:08;;;;;;;10.75;8.75;;;;;;;18.77;100.00;101028.94;4981340;28;20403;-84
2022/10/30 10:56:39;;;;;;;13.15;8.68;;;;;;;18.73;100.00;101033.53;5013760;28;20389;-84
2022/10/30 10:59:13;;;;;;;11.88;8.43;;;;;;;18.82;99.13;101029.53;5000995;28;20041;-85
2022/10/30 11:01:44;;;;;;;12.10;9.07;;;;;;;18.97;98.92;101036.84;5000640;28;20490;-84
2022/10/30 11:04:23;;;;;;;14.52;9.43;;;;;;;19.03;100.00;101036.53;5017992;28;20041;-84
2022/10/30 11:06:52;;;;;;;13.50;8.27;;;;;;;19.10;98.38;101029.06;5031838;28;20041;-84
2022/10/30 11:09:23;;;;;;;12.57;8.65;;;;;;;19.18;98.97;101028.69;4981330;28;20038;-84
2022/10/30 11:11:51;;;;;;;13.30;9.65;;;;;;;19.16;98.41;101035.91;4984777;28;20077;-84
2022/10/30 11:14:21;;;;;;;13.27;8.32;;;;;;;19.34;94.96;101037.69;5002622;28;20084;-84
2022/10/30 11:17:05;;;;;;;13.50;9.25;;;;;;;19.32;95.75;101036.88;5001128;28;20088;-81